Time;durP1;ratioP1;P1;durP2;ratioP2;P2;SDS_P1;SDS_P2;PMS_P1;PMS_P2;Temp;Humidity;BMP_temperature;BMP_pressure;BME280_temperature;BME280_humidity;BME280_pressure;Samples;Min_cycle;Max_cycle;Signal;HPM_P1;HPM_P2
2021/09/10 02:02:52;;;;;;;;;;;;;;;16.63;97.14;100110.66;6054906;23;19932;-84
2021/09/10 02:05:18;;;;;;;;;;;;;;;16.62;96.95;100117.16;6014876;23;19914;-84
2021/09/10 02:07:43;;;;;;;;;;;;;;;16.60;96.94;100113.84;6013052;23;19906;-83
2021/09/10 02:10:10;;;;;;;;;;;;;;;16.55;97.22;100114.53;6013695;23;20315;-83
2021/09/10 02:12:35;;;;;;;;;;;;;;;16.55;97.69;100111.81;6014365;23;20008;-82
2021/09/10 02:15:01;;;;;;;;;;;;;;;16.58;97.72;100116.78;5991913;23;20351;-83
2021/09/10 02:17:26;;;;;;;;;;;;;;;16.60;97.70;100119.28;6015419;23;19937;-84
2021/09/10 02:19:52;;;;;;;;;;;;;;;16.63;97.59;100125.06;6022174;23;19913;-82
2021/09/10 02:22:17;;;;;;;;;;;;;;;16.62;97.47;100123.41;6003736;23;19906;-83
2021/09/10 02:24:43;;;;;;;;;;;;;;;16.62;97.58;100120.69;6004461;23;19916;-83
2021/09/10 02:27:09;;;;;;;;;;;;;;;16.63;97.48;100125.06;6003566;23;19920;-82
2021/09/10 02:29:34;;;;;;;;;;;;;;;16.66;97.29;100124.59;6004550;23;19953;-84
2021/09/10 02:32:00;;;;;;;;;;;;;;;16.70;97.15;100124.97;6004740;23;19958;-84
2021/09/10 02:34:25;;;;;;;;;;;;;;;16.70;97.10;100128.50;6005737;23;19944;-84
2021/09/10 02:36:51;;;;;;;;;;;;;;;16.70;97.32;100116.84;6003915;23;19906;-82
2021/09/10 02:39:16;;;;;;;;;;;;;;;16.73;97.06;100123.69;6004402;23;19910;-83
2021/09/10 02:41:43;;;;;;;;;;;;;;;16.69;97.03;100124.13;6051731;23;19916;-82
2021/09/10 02:44:08;;;;;;;;;;;;;;;16.68;97.03;100118.94;6052231;23;19905;-83
2021/09/10 02:46:34;;;;;;;;;;;;;;;16.68;97.20;100121.66;6026575;23;19905;-82
2021/09/10 02:49:00;;;;;;;;;;;;;;;16.66;96.84;100121.88;6027196;23;19906;-82
2021/09/10 02:51:26;;;;;;;;;;;;;;;16.64;97.16;100126.69;6023383;23;19912;-84
2021/09/10 02:53:51;;;;;;;;;;;;;;;16.61;97.33;100127.16;6018451;23;20236;-83
2021/09/10 02:56:17;;;;;;;;;;;;;;;16.58;97.58;100132.25;6020446;23;19920;-83
2021/09/10 02:58:43;;;;;;;;;;;;;;;16.60;97.58;100136.38;6041445;23;19910;-83
2021/09/10 03:01:08;;;;;;;;;;;;;;;16.61;97.06;100131.78;6016549;23;19981;-83
2021/09/10 03:03:34;;;;;;;;;;;;;;;16.58;97.26;100127.63;5994033;23;19961;-84
2021/09/10 03:05:59;;;;;;;;;;;;;;;16.59;97.31;100131.16;5994456;23;19909;-84
2021/09/10 03:08:25;;;;;;;;;;;;;;;16.59;97.47;100128.47;5995357;23;19961;-83
2021/09/10 03:10:50;;;;;;;;;;;;;;;16.56;97.30;100129.75;5994800;23;19916;-83
2021/09/10 03:13:16;;;;;;;;;;;;;;;16.54;97.18;100131.88;6043775;23;20367;-84
2021/09/10 03:15:42;;;;;;;;;;;;;;;16.53;97.29;100130.22;6017976;23;20020;-84
2021/09/10 03:18:07;;;;;;;;;;;;;;;16.51;97.44;100134.22;6042571;23;19912;-83
2021/09/10 03:20:33;;;;;;;;;;;;;;;16.49;97.55;100132.56;5995706;23;19917;-84
2021/09/10 03:22:58;;;;;;;;;;;;;;;16.50;97.51;100125.25;6016922;23;19905;-82
2021/09/10 03:25:23;;;;;;;;;;;;;;;16.51;97.61;100137.75;6020347;23;19916;-83
2021/09/10 03:27:49;;;;;;;;;;;;;;;16.51;97.71;100129.59;5992895;23;19912;-84
2021/09/10 03:30:15;;;;;;;;;;;;;;;16.51;97.54;100132.31;6012836;23;19985;-84
2021/09/10 03:32:41;;;;;;;;;;;;;;;16.52;97.57;100134.00;6013114;23;20272;-83
2021/09/10 03:35:06;;;;;;;;;;;;;;;16.52;97.65;100139.41;6017837;23;19933;-83
2021/09/10 03:37:32;;;;;;;;;;;;;;;16.52;97.71;100128.56;6020000;23;19909;-84
2021/09/10 03:39:57;;;;;;;;;;;;;;;16.53;97.66;100132.94;6046490;23;19955;-84
2021/09/10 03:42:23;;;;;;;;;;;;;;;16.50;97.62;100130.69;6041836;23;19973;-83
2021/09/10 03:44:48;;;;;;;;;;;;;;;16.47;97.73;100136.56;5997636;23;19916;-83
2021/09/10 03:47:14;;;;;;;;;;;;;;;16.42;98.26;100126.41;5995722;23;19906;-82
2021/09/10 03:49:39;;;;;;;;;;;;;;;16.49;98.13;100140.72;5996228;23;19909;-82
2021/09/10 03:52:05;;;;;;;;;;;;;;;16.49;98.22;100140.72;5997761;23;19992;-84
2021/09/10 03:54:30;;;;;;;;;;;;;;;16.48;97.96;100139.06;6022646;23;19974;-84
2021/09/10 07:54:54;;;;;;;;;;;;;;;15.82;99.02;100365.72;5950615;24;20015;-84
2021/09/10 07:57:19;;;;;;;;;;;;;;;15.87;98.95;100372.34;5946343;24;19915;-82
2021/09/10 07:59:45;;;;;;;;;;;;;;;15.85;98.89;100375.28;5959227;24;20352;-84
2021/09/10 08:05:40;;;;;;;;;;;;;;;15.81;98.60;100384.91;5947064;24;19935;-84
2021/09/10 12:06:03;;;;;;;;;;;;;;;16.91;90.89;100564.41;6050870;23;19956;-84
2021/09/10 12:08:29;;;;;;;;;;;;;;;16.91;91.29;100555.44;6022604;23;19921;-83
2021/09/10 12:10:54;;;;;;;;;;;;;;;16.92;91.42;100560.63;6021618;23;19905;-85
2021/09/10 12:13:20;;;;;;;;;;;;;;;16.94;91.24;100565.84;6021880;23;19909;-84
2021/09/10 12:15:45;;;;;;;;;;;;;;;16.92;91.02;100573.38;5997071;23;19909;-83
2021/09/10 12:18:14;;;;;;;;;;;;;;;16.90;90.78;100568.16;5998133;23;20478;-84
2021/09/10 12:20:40;;;;;;;;;;;;;;;16.86;90.75;100569.66;6017732;23;20380;-84
2021/09/10 12:23:07;;;;;;;;;;;;;;;16.82;90.71;100573.88;5996039;23;19957;-84
2021/09/10 12:25:32;;;;;;;;;;;;;;;16.81;90.59;100572.22;5995760;23;19967;-83
2021/09/10 12:28:07;;;;;;;;;;;;;;;16.78;90.66;100574.56;6019149;23;19905;-82
2021/09/10 12:30:46;;;;;;;;;;;;;;;16.78;90.69;100574.56;6043572;23;19905;-84
2021/09/10 12:33:14;;;;;;;;;;;;;;;16.73;90.57;100571.63;6021883;23;19909;-83
2021/09/10 12:35:39;;;;;;;;;;;;;;;16.71;90.50;100571.84;5997473;23;20534;-84
2021/09/10 12:38:27;;;;;;;;;;;;;;;16.78;90.36;100582.69;6023647;23;19905;-84
2021/09/10 12:40:53;;;;;;;;;;;;;;;16.88;90.16;100585.72;5998023;23;19929;-84
2021/09/10 12:43:20;;;;;;;;;;;;;;;16.98;90.06;100588.78;6045568;23;19905;-83
2021/09/10 12:45:45;;;;;;;;;;;;;;;17.11;89.15;100574.25;6022314;23;19918;-83
2021/09/10 12:48:11;;;;;;;;;;;;;;;17.28;88.64;100579.94;5999379;23;19905;-83
2021/09/10 12:50:37;;;;;;;;;;;;;;;17.63;87.21;100576.66;6020733;23;19996;-83
2021/09/10 12:53:03;;;;;;;;;;;;;;;17.98;86.22;100574.97;6019932;23;19949;-84
2021/09/10 12:55:29;;;;;;;;;;;;;;;18.19;85.94;100586.44;6020088;23;20287;-83
2021/09/10 12:57:55;;;;;;;;;;;;;;;18.42;85.03;100589.25;6044559;23;19916;-84
2021/09/10 13:00:20;;;;;;;;;;;;;;;18.68;84.07;100588.00;6018758;23;19905;-84
2021/09/10 13:02:46;;;;;;;;;;;;;;;18.82;82.22;100583.22;5995149;23;20291;-84
2021/09/10 13:05:11;;;;;;;;;;;;;;;18.91;81.78;100596.50;6020304;23;19988;-83
2021/09/10 13:07:37;;;;;;;;;;;;;;;18.89;81.91;100594.84;6019669;23;19995;-83
2021/09/10 13:10:03;;;;;;;;;;;;;;;18.80;81.48;100595.41;6019939;23;19913;-83
2021/09/10 13:12:28;;;;;;;;;;;;;;;18.64;81.23;100597.69;6018423;23;20331;-83
2021/09/10 13:14:54;;;;;;;;;;;;;;;18.46;81.63;100611.38;6008246;23;19913;-84
2021/09/10 13:17:21;;;;;;;;;;;;;;;18.35;82.02;100604.84;6009283;23;19934;-82
2021/09/10 13:19:47;;;;;;;;;;;;;;;18.52;81.79;100609.63;5995135;23;19941;-84
2021/09/10 13:22:12;;;;;;;;;;;;;;;18.70;81.53;100606.00;6017241;23;19917;-84
2021/09/10 13:24:38;;;;;;;;;;;;;;;18.73;81.27;100603.63;6039367;23;20012;-83
2021/09/10 13:27:04;;;;;;;;;;;;;;;18.65;81.46;100609.41;5993550;23;19912;-84
2021/09/10 13:29:29;;;;;;;;;;;;;;;18.52;82.32;100615.06;6017900;23;19976;-83
2021/09/10 13:31:55;;;;;;;;;;;;;;;18.33;82.89;100617.84;5995061;23;20023;-85
2021/09/10 13:34:23;;;;;;;;;;;;;;;18.17;83.40;100615.75;5994114;23;19910;-84
2021/09/10 13:36:49;;;;;;;;;;;;;;;17.97;84.18;100630.47;6021281;23;19909;-85
2021/09/10 13:39:15;;;;;;;;;;;;;;;17.93;84.26;100631.97;6028859;23;19913;-84
2021/09/10 13:41:40;;;;;;;;;;;;;;;17.80;84.37;100624.78;6002632;23;19909;-82
2021/09/10 13:44:06;;;;;;;;;;;;;;;17.77;84.89;100632.53;6000755;23;19909;-83
2021/09/10 13:46:31;;;;;;;;;;;;;;;17.81;85.11;100631.06;6049233;23;19917;-85
2021/09/10 13:48:57;;;;;;;;;;;;;;;17.85;85.03;100634.97;6006021;23;19909;-85
2021/09/10 13:51:23;;;;;;;;;;;;;;;17.76;84.38;100642.59;6004350;23;19910;-82
2021/09/10 13:53:49;;;;;;;;;;;;;;;17.65;84.44;100647.94;6007014;23;20004;-84
2021/09/10 13:56:15;;;;;;;;;;;;;;;17.54;84.67;100647.63;5999773;23;19905;-83
2021/09/10 13:58:40;;;;;;;;;;;;;;;17.40;84.92;100651.53;5996101;23;19905;-85
2021/09/10 14:01:06;;;;;;;;;;;;;;;17.31;85.57;100659.13;5995033;23;19923;-84
2021/09/10 14:03:32;;;;;;;;;;;;;;;17.29;85.99;100657.69;6018838;23;19909;-83
2021/09/10 14:05:57;;;;;;;;;;;;;;;17.20;86.18;100656.28;6017645;23;19962;-83
2021/09/10 14:08:22;;;;;;;;;;;;;;;17.19;86.42;100666.34;6015382;23;19913;-83
2021/09/10 14:10:48;;;;;;;;;;;;;;;17.16;86.63;100664.06;6015857;23;19910;-82
2021/09/10 14:13:14;;;;;;;;;;;;;;;17.17;86.79;100673.88;5994768;23;19910;-83
2021/09/10 14:15:39;;;;;;;;;;;;;;;17.12;87.38;100665.56;5992888;23;19976;-83
2021/09/10 14:18:05;;;;;;;;;;;;;;;17.13;87.57;100672.66;6016359;23;19906;-83
2021/09/10 14:20:30;;;;;;;;;;;;;;;17.16;87.94;100674.94;6040966;23;19909;-82
2021/09/10 14:22:56;;;;;;;;;;;;;;;17.22;88.13;100676.75;5992389;23;20343;-84
2021/09/10 14:25:21;;;;;;;;;;;;;;;17.25;87.72;100672.75;6017693;23;20323;-84
2021/09/10 14:27:47;;;;;;;;;;;;;;;17.25;87.36;100675.47;5992707;23;19912;-82
2021/09/10 14:30:13;;;;;;;;;;;;;;;17.18;87.41;100675.56;5992637;23;20343;-83
2021/09/10 14:32:38;;;;;;;;;;;;;;;17.14;86.96;100674.31;5992906;23;19913;-85
2021/09/10 14:35:04;;;;;;;;;;;;;;;17.09;87.32;100682.28;6018119;23;19909;-84
2021/09/10 14:37:29;;;;;;;;;;;;;;;17.07;87.80;100689.84;5994867;23;19905;-81
2021/09/10 14:39:55;;;;;;;;;;;;;;;16.98;87.93;100686.56;5994869;23;19910;-84
2021/09/10 14:42:21;;;;;;;;;;;;;;;16.93;88.16;100680.94;6017854;23;19905;-83
2021/09/10 14:44:46;;;;;;;;;;;;;;;16.99;88.28;100685.53;6018941;23;19976;-84
2021/09/10 14:47:11;;;;;;;;;;;;;;;17.06;87.88;100688.19;6018308;23;19906;-83
2021/09/10 14:49:37;;;;;;;;;;;;;;;17.08;87.77;100689.63;6017628;23;19937;-83
2021/09/10 14:52:03;;;;;;;;;;;;;;;17.09;87.14;100687.72;6021024;23;19905;-83
2021/09/10 14:54:28;;;;;;;;;;;;;;;17.09;86.94;100693.16;6019720;23;19922;-84
2021/09/10 14:56:54;;;;;;;;;;;;;;;17.09;87.10;100690.44;6018311;23;19916;-83
2021/09/10 14:59:21;;;;;;;;;;;;;;;17.09;87.09;100699.47;6040797;23;19910;-83
2021/09/10 15:01:49;;;;;;;;;;;;;;;17.07;86.85;100696.13;5994815;23;19912;-83
2021/09/10 15:04:15;;;;;;;;;;;;;;;17.04;86.82;100701.13;6017039;23;19943;-84
2021/09/10 15:06:41;;;;;;;;;;;;;;;17.04;86.92;100701.13;6031245;23;19910;-83
2021/09/10 15:09:07;;;;;;;;;;;;;;;17.09;86.64;100698.59;6001388;23;19988;-83
2021/09/10 15:11:34;;;;;;;;;;;;;;;17.21;86.64;100698.72;6018477;23;19909;-83
2021/09/10 15:13:59;;;;;;;;;;;;;;;17.27;86.46;100695.94;5994345;23;19917;-83
2021/09/10 15:16:25;;;;;;;;;;;;;;;17.31;86.16;100699.06;6028490;23;19909;-83
2021/09/10 15:18:51;;;;;;;;;;;;;;;17.28;85.84;100699.50;6006186;23;19906;-83
2021/09/10 15:21:18;;;;;;;;;;;;;;;17.24;86.59;100709.97;6026409;23;20434;-84
2021/09/10 15:23:43;;;;;;;;;;;;;;;17.11;86.75;100708.19;6027100;23;19909;-83
2021/09/10 15:26:09;;;;;;;;;;;;;;;17.06;86.99;100710.72;5996871;23;19961;-82
2021/09/10 15:28:35;;;;;;;;;;;;;;;17.00;87.06;100706.19;6040355;23;19901;-82
2021/09/10 15:31:01;;;;;;;;;;;;;;;17.01;86.75;100707.03;6017561;23;20259;-82
2021/09/10 15:33:29;;;;;;;;;;;;;;;17.09;86.28;100714.91;6048218;23;19913;-82
2021/09/10 15:36:14;;;;;;;;;;;;;;;17.08;86.26;100710.53;6028899;23;20480;-84
2021/09/10 15:38:42;;;;;;;;;;;;;;;17.05;86.59;100727.28;6057033;23;19910;-84
2021/09/10 15:41:35;;;;;;;;;;;;;;;16.94;86.66;100717.94;6055910;23;19951;-83
2021/09/10 15:44:29;;;;;;;;;;;;;;;16.86;87.64;100704.63;6071285;23;19925;-83
2021/09/10 15:46:55;;;;;;;;;;;;;;;16.90;87.66;100719.41;6029322;23;19916;-84
2021/09/10 15:49:27;;;;;;;;;;;;;;;16.91;87.37;100719.22;6029237;23;19909;-84
2021/09/10 15:51:58;;;;;;;;;;;;;;;16.93;87.20;100716.25;6055247;23;19989;-84
2021/09/10 15:58:00;;;;;;;;;;;;;;;16.80;87.06;100713.63;6083358;23;19925;-84
2021/09/10 16:00:27;;;;;;;;;;;;;;;16.74;87.13;100725.34;6056064;23;19912;-83
2021/09/10 16:03:13;;;;;;;;;;;;;;;16.73;87.36;100726.41;6032871;23;19916;-83
2021/09/10 16:05:41;;;;;;;;;;;;;;;16.68;87.30;100730.56;6053121;23;19909;-83
2021/09/10 16:08:10;;;;;;;;;;;;;;;16.71;87.48;100734.75;6032559;23;19933;-84
2021/09/10 16:10:37;;;;;;;;;;;;;;;16.70;88.02;100733.91;6032788;23;19913;-84
2021/09/10 16:13:03;;;;;;;;;;;;;;;16.71;88.23;100734.75;6008788;23;20299;-84
2021/09/10 16:15:29;;;;;;;;;;;;;;;16.70;88.81;100724.94;6056253;23;19915;-83
2021/09/10 16:17:57;;;;;;;;;;;;;;;16.66;89.00;100738.09;6008340;23;19932;-83
2021/09/10 16:20:23;;;;;;;;;;;;;;;16.62;89.10;100745.03;6003946;23;19914;-84
2021/09/10 16:22:50;;;;;;;;;;;;;;;16.54;89.06;100742.56;6029708;23;19932;-82
2021/09/10 16:25:15;;;;;;;;;;;;;;;16.48;89.36;100741.56;6018980;23;19909;-84
2021/09/10 16:27:41;;;;;;;;;;;;;;;16.47;89.26;100748.00;5994306;23;19960;-83
2021/09/10 16:30:08;;;;;;;;;;;;;;;16.47;89.16;100749.88;6021391;23;19986;-84
2021/09/10 16:32:35;;;;;;;;;;;;;;;16.52;89.26;100747.38;6017566;23;20287;-84
2021/09/10 16:35:01;;;;;;;;;;;;;;;16.59;88.99;100759.03;6017391;23;20000;-83
2021/09/10 16:37:26;;;;;;;;;;;;;;;16.63;88.75;100749.41;6018084;23;19929;-84
2021/09/10 16:39:52;;;;;;;;;;;;;;;16.65;88.38;100754.63;6019492;23;19977;-83
2021/09/10 16:42:18;;;;;;;;;;;;;;;16.64;87.97;100755.66;6021944;23;20294;-83
2021/09/10 16:44:44;;;;;;;;;;;;;;;16.62;87.84;100764.03;6019531;23;19956;-83
2021/09/10 16:47:10;;;;;;;;;;;;;;;16.60;88.06;100763.41;6015310;23;19909;-84
2021/09/10 16:49:35;;;;;;;;;;;;;;;16.62;88.02;100769.47;6013693;23;19914;-84
2021/09/10 16:52:01;;;;;;;;;;;;;;;16.66;88.02;100765.25;6017520;23;19912;-84
2021/09/10 16:54:27;;;;;;;;;;;;;;;16.62;87.70;100768.63;5994866;23;19909;-83
2021/09/10 16:56:52;;;;;;;;;;;;;;;16.57;88.18;100757.59;6018349;23;19912;-83
2021/09/10 16:59:18;;;;;;;;;;;;;;;16.52;87.84;100763.66;6018409;23;19992;-83
2021/09/10 17:01:43;;;;;;;;;;;;;;;16.47;88.39;100760.75;6000009;23;19917;-84
2021/09/10 17:04:08;;;;;;;;;;;;;;;16.49;88.36;100769.50;5997166;23;19910;-83
2021/09/10 17:06:34;;;;;;;;;;;;;;;16.42;88.19;100760.56;6043812;23;20629;-84
2021/09/10 17:08:59;;;;;;;;;;;;;;;16.35;88.64;100766.00;6020748;23;19909;-85
2021/09/10 17:11:25;;;;;;;;;;;;;;;16.29;88.79;100766.03;6018338;23;19905;-84
2021/09/10 17:13:50;;;;;;;;;;;;;;;16.25;89.27;100768.34;6019488;23;20323;-83
2021/09/10 17:16:16;;;;;;;;;;;;;;;16.23;89.52;100765.84;5994900;23;20356;-85
2021/09/10 17:18:42;;;;;;;;;;;;;;;16.11;89.93;100762.09;5991365;23;19916;-85
2021/09/10 17:21:07;;;;;;;;;;;;;;;16.10;90.06;100775.88;6015564;23;19936;-84
2021/09/10 17:23:33;;;;;;;;;;;;;;;16.09;90.89;100780.47;5993307;23;20347;-85
2021/09/10 17:25:58;;;;;;;;;;;;;;;16.11;90.93;100778.38;6017580;23;20217;-85
2021/09/10 17:28:24;;;;;;;;;;;;;;;16.12;90.77;100782.75;5993098;23;19917;-85
2021/09/10 17:30:49;;;;;;;;;;;;;;;16.07;90.62;100785.28;5992894;23;19912;-85
2021/09/10 17:33:15;;;;;;;;;;;;;;;16.04;90.99;100785.72;6017858;23;19988;-84
2021/09/10 17:35:40;;;;;;;;;;;;;;;16.01;91.57;100784.25;6017883;23;19957;-84
2021/09/10 17:38:06;;;;;;;;;;;;;;;16.01;91.23;100791.56;6016039;23;19905;-84
2021/09/10 17:40:31;;;;;;;;;;;;;;;16.00;91.19;100787.97;5993814;23;19925;-84
2021/09/10 17:42:57;;;;;;;;;;;;;;;15.98;91.38;100792.81;6018022;23;20145;-84
2021/09/10 17:45:23;;;;;;;;;;;;;;;15.94;91.81;100791.53;6017851;23;19913;-84
2021/09/10 17:47:48;;;;;;;;;;;;;;;15.94;92.04;100790.72;6017260;23;19949;-84
2021/09/10 17:50:14;;;;;;;;;;;;;;;15.99;92.14;100796.34;5995855;23;20228;-84
2021/09/10 17:52:39;;;;;;;;;;;;;;;16.03;91.62;100797.56;6018646;23;19909;-84
2021/09/10 17:55:06;;;;;;;;;;;;;;;16.05;91.83;100798.22;6019080;23;19960;-84
2021/09/10 17:57:32;;;;;;;;;;;;;;;16.07;91.68;100798.00;6019490;23;19905;-85
2021/09/10 17:59:58;;;;;;;;;;;;;;;16.03;91.46;100806.53;5994727;23;19905;-84
2021/09/10 18:02:23;;;;;;;;;;;;;;;16.00;91.90;100793.41;6018373;23;20302;-84
2021/09/10 18:04:49;;;;;;;;;;;;;;;15.99;91.76;100804.47;5996058;23;19929;-85
2021/09/10 18:07:14;;;;;;;;;;;;;;;15.92;92.01;100809.06;5994466;23;19909;-85
2021/09/10 18:09:40;;;;;;;;;;;;;;;15.82;92.54;100807.63;6015673;23;19906;-82
2021/09/10 18:12:06;;;;;;;;;;;;;;;15.84;92.83;100815.53;5991328;23;20248;-84
2021/09/10 18:14:31;;;;;;;;;;;;;;;15.87;92.74;100809.69;6015235;23;19937;-84
2021/09/10 18:16:57;;;;;;;;;;;;;;;15.87;92.65;100814.28;5991775;23;19914;-84
2021/09/10 18:19:22;;;;;;;;;;;;;;;15.88;92.96;100813.22;5991677;23;20240;-84
2021/09/10 18:21:48;;;;;;;;;;;;;;;15.85;92.85;100816.38;5991401;23;19928;-84
2021/09/10 18:24:13;;;;;;;;;;;;;;;15.82;92.82;100814.91;5992329;23;19909;-84
2021/09/10 18:26:39;;;;;;;;;;;;;;;15.76;92.63;100811.16;6014881;23;20560;-83
2021/09/10 18:29:04;;;;;;;;;;;;;;;15.71;92.66;100804.69;6015757;23;19906;-84
2021/09/10 18:31:30;;;;;;;;;;;;;;;15.66;92.64;100809.88;5993947;23;19913;-84
2021/09/10 18:33:55;;;;;;;;;;;;;;;15.60;92.29;100815.09;6017680;23;20328;-85
2021/09/10 18:36:20;;;;;;;;;;;;;;;15.57;92.61;100825.50;5994259;23;19906;-85
2021/09/10 18:38:46;;;;;;;;;;;;;;;15.55;92.32;100827.59;6016007;23;19905;-83
2021/09/10 18:41:12;;;;;;;;;;;;;;;15.49;92.45;100829.25;6017150;23;19905;-83
2021/09/10 18:43:40;;;;;;;;;;;;;;;15.47;92.58;100827.78;6041075;23;20295;-82
2021/09/10 18:46:05;;;;;;;;;;;;;;;15.47;92.79;100835.91;5993675;23;19912;-83
2021/09/10 18:48:31;;;;;;;;;;;;;;;15.43;92.68;100832.81;5994083;23;19949;-84
2021/09/10 18:50:56;;;;;;;;;;;;;;;15.41;92.70;100842.19;5993010;23;19959;-84
2021/09/10 18:53:21;;;;;;;;;;;;;;;15.41;92.96;100842.19;6017177;23;20008;-82
2021/09/10 18:55:47;;;;;;;;;;;;;;;15.39;92.91;100851.31;6016932;23;19915;-84
2021/09/10 18:58:12;;;;;;;;;;;;;;;15.35;93.30;100850.09;6015399;23;19913;-81
2021/09/10 19:00:38;;;;;;;;;;;;;;;15.31;93.25;100853.41;6017125;23;19940;-84
2021/09/10 19:03:03;;;;;;;;;;;;;;;15.29;93.67;100861.72;6015548;23;19909;-83
2021/09/10 19:05:29;;;;;;;;;;;;;;;15.27;93.78;100866.53;5992869;23;19913;-84
2021/09/10 19:07:54;;;;;;;;;;;;;;;15.24;93.63;100869.66;5993944;23;19906;-83
2021/09/10 19:10:20;;;;;;;;;;;;;;;15.23;93.75;100875.25;5993665;23;19929;-83
2021/09/10 19:12:45;;;;;;;;;;;;;;;15.24;93.96;100876.91;6016463;23;20376;-83
2021/09/10 19:15:11;;;;;;;;;;;;;;;15.24;93.93;100876.91;5992573;23;19913;-83
2021/09/10 19:17:36;;;;;;;;;;;;;;;15.24;94.00;100874.22;5995003;23;19980;-82
2021/09/10 19:20:03;;;;;;;;;;;;;;;15.26;93.90;100878.38;6017979;23;19929;-84
2021/09/10 19:22:28;;;;;;;;;;;;;;;15.24;93.74;100885.91;5994889;23;19933;-82
2021/09/10 19:24:54;;;;;;;;;;;;;;;15.25;93.62;100890.28;6016646;23;19933;-84
2021/09/10 19:27:19;;;;;;;;;;;;;;;15.24;93.66;100894.03;5993693;23;19912;-83
2021/09/10 19:29:45;;;;;;;;;;;;;;;15.21;93.64;100897.13;6017385;23;20271;-84
2021/09/10 19:32:10;;;;;;;;;;;;;;;15.17;93.47;100901.28;5993499;23;19905;-83
2021/09/10 19:34:38;;;;;;;;;;;;;;;15.12;93.63;100896.47;5993681;23;19910;-83
2021/09/10 19:37:04;;;;;;;;;;;;;;;15.07;93.82;100909.78;6017623;23;20370;-84
2021/09/10 19:39:30;;;;;;;;;;;;;;;14.97;94.20;100895.78;5992800;23;19941;-83
2021/09/10 19:42:05;;;;;;;;;;;;;;;15.06;94.17;100910.00;6040807;23;20493;-84
2021/09/10 19:44:40;;;;;;;;;;;;;;;15.07;94.10;100908.94;5996253;23;19972;-81
2021/09/10 19:47:06;;;;;;;;;;;;;;;15.10;93.94;100916.66;5994266;23;19977;-85
2021/09/10 19:49:32;;;;;;;;;;;;;;;15.10;93.73;100913.97;6017212;23;19909;-85
2021/09/10 19:51:57;;;;;;;;;;;;;;;15.07;93.64;100923.31;6015757;23;20003;-83
2021/09/10 19:54:23;;;;;;;;;;;;;;;15.06;94.03;100926.25;5993057;23;19928;-83
2021/09/10 19:56:49;;;;;;;;;;;;;;;15.05;94.19;100925.38;5993155;23;19909;-84
2021/09/10 19:59:14;;;;;;;;;;;;;;;15.05;94.18;100924.56;6040709;23;19905;-84
2021/09/10 20:01:40;;;;;;;;;;;;;;;15.02;94.29;100935.78;6041123;23;19905;-83
2021/09/10 20:04:05;;;;;;;;;;;;;;;15.02;94.76;100938.50;6016285;23;19910;-84
2021/09/10 20:06:34;;;;;;;;;;;;;;;15.00;94.54;100935.16;5993823;23;19916;-84
2021/09/10 20:09:00;;;;;;;;;;;;;;;14.99;94.85;100945.16;6017144;23;20350;-82
2021/09/10 20:11:26;;;;;;;;;;;;;;;14.92;95.10;100953.25;6017981;23;19921;-83
2021/09/10 20:13:52;;;;;;;;;;;;;;;14.91;95.30;100959.69;6017964;23;20287;-84
2021/09/10 20:16:17;;;;;;;;;;;;;;;14.92;95.45;100957.81;6017796;23;19909;-85
2021/09/10 20:18:43;;;;;;;;;;;;;;;14.90;95.48;100957.19;5991916;23;19910;-85
2021/09/10 20:21:08;;;;;;;;;;;;;;;14.84;95.54;100947.97;5989890;23;19932;-85
2021/09/10 20:23:34;;;;;;;;;;;;;;;14.82;95.81;100955.47;5989447;23;19913;-85
2021/09/10 20:25:59;;;;;;;;;;;;;;;14.77;96.01;100955.25;5992429;23;19909;-85
2021/09/10 20:28:25;;;;;;;;;;;;;;;14.73;96.25;100964.78;5992767;23;19921;-86
2021/09/10 20:30:50;;;;;;;;;;;;;;;14.73;96.51;100970.19;5992668;23;20224;-85
2021/09/10 20:33:16;;;;;;;;;;;;;;;14.72;96.75;100971.25;6014805;23;19916;-85
2021/09/10 20:35:42;;;;;;;;;;;;;;;14.74;96.83;100971.88;6014033;23;19905;-85
2021/09/10 20:38:08;;;;;;;;;;;;;;;14.73;96.71;100975.59;5991956;23;19910;-85
2021/09/10 20:40:34;;;;;;;;;;;;;;;14.70;97.00;100971.41;5990608;23;19937;-85
2021/09/10 20:42:59;;;;;;;;;;;;;;;14.70;97.01;100965.19;6014759;23;19916;-84
2021/09/10 20:45:25;;;;;;;;;;;;;;;14.70;96.96;100965.19;6014939;23;20339;-85
2021/09/10 20:47:50;;;;;;;;;;;;;;;14.70;96.86;100967.88;5990503;23;19913;-85
2021/09/10 20:50:16;;;;;;;;;;;;;;;14.70;96.79;100968.72;6014737;23;20320;-85
2021/09/10 20:52:41;;;;;;;;;;;;;;;14.69;96.70;100966.22;5990794;23;19906;-86
2021/09/10 20:55:07;;;;;;;;;;;;;;;14.67;96.66;100968.28;5990914;23;19917;-85
2021/09/10 20:57:33;;;;;;;;;;;;;;;14.64;96.74;100976.81;6036728;23;19906;-84
2021/09/10 20:59:58;;;;;;;;;;;;;;;14.64;96.74;100968.69;5989986;23;20328;-84
2021/09/10 21:02:24;;;;;;;;;;;;;;;14.63;96.90;100964.28;5990535;23;19906;-84
2021/09/10 21:04:50;;;;;;;;;;;;;;;14.62;96.67;100968.03;6013923;23;20228;-84
2021/09/10 21:07:15;;;;;;;;;;;;;;;14.61;96.82;100969.09;5990586;23;20612;-85
2021/09/10 21:09:41;;;;;;;;;;;;;;;14.63;96.87;100969.69;5988990;23;20358;-84
2021/09/10 21:12:06;;;;;;;;;;;;;;;14.61;96.97;100969.09;5989867;23;20250;-85
2021/09/10 21:14:33;;;;;;;;;;;;;;;14.60;97.00;100970.94;5990538;23;19913;-85
2021/09/10 21:17:01;;;;;;;;;;;;;;;14.56;97.07;100958.84;6014513;23;19928;-84
2021/09/10 21:19:26;;;;;;;;;;;;;;;14.60;96.92;100981.75;5989741;23;19910;-84
2021/09/10 21:21:55;;;;;;;;;;;;;;;14.58;96.91;100985.69;6014107;23;19909;-84
2021/09/10 21:24:21;;;;;;;;;;;;;;;14.57;97.18;100984.03;6013678;23;19906;-84
2021/09/10 21:26:46;;;;;;;;;;;;;;;14.59;97.00;100984.69;6037331;23;20239;-85
2021/09/10 21:29:12;;;;;;;;;;;;;;;14.57;97.01;100976.75;5989082;23;20355;-85
2021/09/10 21:31:37;;;;;;;;;;;;;;;14.57;96.93;100981.31;5989604;23;19969;-84
2021/09/10 21:34:03;;;;;;;;;;;;;;;14.56;97.56;100972.38;6013288;23;19909;-84
2021/09/10 21:36:28;;;;;;;;;;;;;;;14.54;97.06;100974.44;5989762;23;19952;-85
2021/09/10 21:38:54;;;;;;;;;;;;;;;14.54;97.13;100977.13;6013463;23;20470;-84
2021/09/10 21:41:19;;;;;;;;;;;;;;;14.52;97.20;100971.91;5989526;23;19961;-85
2021/09/10 21:43:45;;;;;;;;;;;;;;;14.54;97.31;100974.44;6036584;23;19906;-84
2021/09/10 21:46:11;;;;;;;;;;;;;;;14.54;97.09;100974.44;6037159;23;19968;-85
2021/09/10 21:48:36;;;;;;;;;;;;;;;14.52;97.27;100984.56;5990286;23;19910;-85
2021/09/10 21:51:02;;;;;;;;;;;;;;;14.52;97.37;100982.72;5989226;23;19905;-83
2021/09/10 21:53:30;;;;;;;;;;;;;;;14.51;97.48;100975.63;6013279;23;19910;-84
2021/09/10 21:55:56;;;;;;;;;;;;;;;14.56;97.41;100983.19;6002175;23;19910;-85
2021/09/10 21:58:22;;;;;;;;;;;;;;;14.52;97.46;100980.03;5989430;23;19913;-85
2021/09/10 22:00:47;;;;;;;;;;;;;;;14.50;97.45;100984.78;6012905;23;19905;-84
2021/09/10 22:03:13;;;;;;;;;;;;;;;14.51;97.46;100985.63;6014068;23;20346;-84
2021/09/10 22:05:38;;;;;;;;;;;;;;;14.46;97.65;100980.78;6014053;23;19909;-85
2021/09/10 22:08:04;;;;;;;;;;;;;;;14.44;97.81;100987.44;6015905;23;19910;-84
2021/09/10 22:10:30;;;;;;;;;;;;;;;14.40;97.73;100988.88;6016085;23;19913;-84
2021/09/10 22:12:57;;;;;;;;;;;;;;;14.35;98.12;100994.03;5992029;23;19943;-83
2021/09/10 22:15:22;;;;;;;;;;;;;;;14.31;98.13;100988.16;5992228;23;19905;-83
2021/09/10 22:17:48;;;;;;;;;;;;;;;14.27;98.30;100982.31;5995071;23;19913;-83
2021/09/10 22:20:13;;;;;;;;;;;;;;;14.24;98.54;100982.69;6017692;23;19905;-84
2021/09/10 22:22:46;;;;;;;;;;;;;;;14.24;98.63;100977.28;6020193;23;19905;-84
2021/09/10 22:25:11;;;;;;;;;;;;;;;14.24;98.65;100985.41;6017978;23;19912;-83
2021/09/10 22:27:37;;;;;;;;;;;;;;;14.24;98.81;100988.09;5994080;23;20251;-84
2021/09/10 22:30:03;;;;;;;;;;;;;;;14.22;98.71;100992.88;5995279;23;19968;-84
2021/09/10 22:32:28;;;;;;;;;;;;;;;14.20;98.65;100997.63;6042608;23;19905;-85
2021/09/10 22:34:54;;;;;;;;;;;;;;;14.19;98.82;101001.38;5993389;23;19913;-84